Nichols, NY (13812)

10:16 PM EDT on September 25, 2016 (GMT -0400)
Tioga Central | | Change Station

Elev 817 ft 42.06 °N, 76.35 °W | Updated 9 seconds ago

Clear
Clear
43.2 °F
Feels Like 43 °F
N
1.1
Wind Variable Wind from NNW
Gusts 1.1 mph

Today
High -- | Low -- °F
--% Chance of Precip.
Yesterday
High -- | Low -- °F
Precip. -- in
Pressure 30.22 in
Visibility 10.0 miles
Clouds Clear
Windchill 43 °F
Dew Point 39 °F
Humidity 84%
Rainfall 0.00 in
Snow Depth Not available.
6:56 AM 6:56 PM
Waning Crescent, 23% visible
METAR KBGM 260153Z 07005KT 10SM CLR 09/02 A3020 RMK AO2 SLP232 T00940017 $
Pressure 30.22 in
Visibility 10.0 miles
Clouds Clear
Windchill 43 °F
Dew Point 39 °F
Humidity 84%
Rainfall 0.00 in
Snow Depth Not available.
6:56 AM 6:56 PM
Waning Crescent, 23% visible
METAR KBGM 260153Z 07005KT 10SM CLR 09/02 A3020 RMK AO2 SLP232 T00940017 $

10-Day Weather Forecast

Almanac

Astronomy

Sep. 25, 2016 Rise Set
Actual Time
Civil Twilight
Nautical Twilight
Astronomical Twilight
Moon
Length of Visible Light
Length of Day
Tomorrow will be .
, % of the Moon is Illuminated

Today's Extremes

State Highs State Lows

Community

WunderPhotos

Upload Photos

1,941,811 photos uploaded!

WunderBlog® & News

Nearby

Air Quality

  Air Quality AQ Index Pollutant
Not available.

Snow Depth

Station Depth Elevation

Earthquake Activity

City Distance Mag. Time & Date
Minimum magnitude displayed is 2.5.

Coastal Water Temperatures

Place Temperature

Stations

Nearby Weather Stations

Station Location Temp. Windchill Dew Point Humidity Wind Precip. Elev Updated Type
                   

Watches & Warnings

There are currently no watches in effect.